Terminal Aerodrome Forecast
Issued by NWS

Home | Current Version | Previous Version | Text Only | Print | Product List | Glossary Off
Versions: 1 2 3 4 5 6 7 8 9 10 11 12 13 14 15 16 17 18 19 20 21 22 23 24 25

369
FTUS43 KLOT 181513 AAA
TAFDPA
TAF AMD
KDPA 181513Z 1815/1912 06007KT P6SM FEW150 SCT250
     FM190500 12007KT P6SM BKN040 OVC100 PROB30 1905/1909 -SHRA=

USA.gov is the U.S. government's official web portal to all federal, state and local government web resources and services.